Time;durP1;ratioP1;P1;durP2;ratioP2;P2;SDS_P1;SDS_P2;PMS_P1;PMS_P2;Temp;Humidity;BMP_temperature;BMP_pressure;BME280_temperature;BME280_humidity;BME280_pressure;Samples;Min_cycle;Max_cycle;Signal;HPM_P1;HPM_P2
2022/04/30 00:00:08;;;;;;;0.70;0.70;;;;;;;0.07;88.79;99821.56;4916160;29;20059;-81
2022/04/30 00:02:40;;;;;;;0.80;0.80;;;;;;;0.04;88.72;99824.53;4898987;29;20104;-82
2022/04/30 00:05:09;;;;;;;0.68;0.68;;;;;;;-0.03;88.96;99826.97;4899008;29;20071;-83
2022/04/30 00:07:36;;;;;;;0.73;0.73;;;;;;;-0.05;89.04;99828.94;4916940;29;20086;-82
2022/04/30 00:10:04;;;;;;;0.70;0.70;;;;;;;-0.06;89.15;99822.81;4916183;29;20059;-83
2022/04/30 00:12:31;;;;;;;0.60;0.60;;;;;;;-0.09;88.95;99825.78;4917052;29;20052;-83
2022/04/30 00:14:59;;;;;;;0.70;0.70;;;;;;;-0.11;88.97;99832.22;4921565;29;20059;-82
2022/04/30 00:17:26;;;;;;;0.70;0.70;;;;;;;-0.15;89.14;99834.38;4939263;29;20050;-82
2022/04/30 00:19:53;;;;;;;0.77;0.77;;;;;;;-0.17;89.27;99828.38;4922056;29;20056;-82
2022/04/30 00:22:20;;;;;;;0.60;0.60;;;;;;;-0.22;89.20;99822.69;4926829;29;20586;-82
2022/04/30 00:24:48;;;;;;;0.60;0.60;;;;;;;-0.25;89.25;99828.31;4925846;29;20052;-82
2022/04/30 00:27:17;;;;;;;0.77;0.77;;;;;;;-0.28;89.53;99834.78;4904028;29;20048;-82
2022/04/30 00:29:46;;;;;;;0.70;0.70;;;;;;;-0.33;89.56;99831.75;4915384;29;20529;-83
2022/04/30 00:32:14;;;;;;;0.77;0.77;;;;;;;-0.34;89.66;99835.38;4898682;29;20056;-82
2022/04/30 00:34:42;;;;;;;0.60;0.60;;;;;;;-0.34;89.71;99831.88;4898293;29;20055;-82
2022/04/30 00:37:10;;;;;;;0.65;0.65;;;;;;;-0.37;89.50;99833.03;4915331;29;20066;-84
2022/04/30 00:39:37;;;;;;;0.50;0.50;;;;;;;-0.39;89.44;99835.00;4894770;29;20518;-82
2022/04/30 00:42:04;;;;;;;0.50;0.50;;;;;;;-0.39;89.70;99832.34;4879329;29;20052;-83
2022/04/30 00:44:31;;;;;;;0.80;0.80;;;;;;;-0.40;89.67;99833.34;4896466;29;20420;-82
2022/04/30 00:46:58;;;;;;;0.70;0.70;;;;;;;-0.44;89.65;99827.50;4895983;29;20053;-83
2022/04/30 00:49:26;;;;;;;0.63;0.63;;;;;;;-0.43;89.64;99831.00;4896332;29;20087;-83
2022/04/30 00:51:54;;;;;;;0.50;0.50;;;;;;;-0.51;89.52;99829.09;4896135;29;20059;-82
2022/04/30 00:54:24;;;;;;;0.80;0.80;;;;;;;-0.54;89.67;99833.88;4879577;29;20056;-83
2022/04/30 00:56:53;;;;;;;0.75;0.75;;;;;;;-0.55;89.65;99830.41;4881221;29;20057;-82
2022/04/30 00:59:20;;;;;;;0.60;0.60;;;;;;;-0.57;89.74;99831.53;4883574;29;20108;-82
2022/04/30 01:01:48;;;;;;;0.77;0.77;;;;;;;-0.58;89.88;99833.38;4899961;29;20086;-83
2022/04/30 01:04:34;;;;;;;0.50;0.50;;;;;;;-0.59;89.54;99841.47;4900194;29;20144;-84
2022/04/30 01:07:08;;;;;;;0.80;0.80;;;;;;;-0.64;89.49;99839.25;4867615;29;20048;-82
2022/04/30 01:09:39;;;;;;;0.65;0.65;;;;;;;-0.71;89.50;99840.84;4883595;29;20148;-83
2022/04/30 01:12:11;;;;;;;0.80;0.80;;;;;;;-0.77;89.69;99839.63;4899428;29;20056;-82
2022/04/30 01:14:39;;;;;;;0.77;0.77;;;;;;;-0.73;89.79;99842.84;4883949;29;20048;-83
2022/04/30 01:17:08;;;;;;;0.70;0.70;;;;;;;-0.69;89.87;99833.56;4883013;29;20583;-82
2022/04/30 01:19:38;;;;;;;0.73;0.73;;;;;;;-0.72;89.48;99832.06;4883212;29;20538;-82
2022/04/30 01:22:20;;;;;;;0.60;0.60;;;;;;;-0.69;89.42;99834.41;4882698;29;20052;-83
2022/04/30 01:24:57;;;;;;;0.70;0.70;;;;;;;-0.71;89.10;99836.41;4899310;29;20077;-84
2022/04/30 01:27:26;;;;;;;0.60;0.60;;;;;;;-0.77;89.09;99836.16;4899639;29;20060;-83
2022/04/30 01:29:54;;;;;;;0.57;0.57;;;;;;;-0.77;89.11;99836.16;4882374;29;20245;-82
2022/04/30 01:38:10;;;;;;;0.60;0.60;;;;;;;-0.85;89.18;99844.88;4899086;29;20064;-83
2022/04/30 01:40:38;;;;;;;0.77;0.77;;;;;;;-0.94;89.08;99838.66;4899011;29;20052;-83
2022/04/30 01:43:06;;;;;;;0.50;0.50;;;;;;;-1.04;89.52;99840.50;4898451;29;20112;-82
2022/04/30 01:45:34;;;;;;;0.63;0.63;;;;;;;-0.97;89.82;99846.88;4899178;29;20053;-83
2022/04/30 01:48:03;;;;;;;0.70;0.70;;;;;;;-0.97;89.65;99838.94;4882420;29;20143;-82
2022/04/30 01:50:33;;;;;;;0.45;0.45;;;;;;;-0.98;89.67;99847.88;4899622;29;20566;-82
2022/04/30 01:53:01;;;;;;;0.60;0.60;;;;;;;-0.96;89.58;99843.28;4898676;29;20084;-83
2022/04/30 01:55:28;;;;;;;0.68;0.68;;;;;;;-1.01;89.46;99845.53;4882439;29;20049;-83
2022/04/30 01:58:00;;;;;;;0.80;0.80;;;;;;;-0.97;89.66;99852.19;4898956;29;20056;-83
2022/04/30 02:00:27;;;;;;;0.70;0.70;;;;;;;-1.01;89.39;99842.88;4882834;29;20516;-83
2022/04/30 02:02:56;;;;;;;0.80;0.80;;;;;;;-0.94;89.46;99851.91;4898873;29;20048;-83
2022/04/30 02:05:24;;;;;;;0.70;0.70;;;;;;;-0.95;89.44;99860.81;4881952;29;20048;-82
2022/04/30 02:07:53;;;;;;;0.70;0.70;;;;;;;-0.97;89.08;99854.84;4865384;29;20057;-84
2022/04/30 02:10:22;;;;;;;0.50;0.50;;;;;;;-0.93;89.01;99850.91;4898607;29;20498;-82
2022/04/30 02:12:50;;;;;;;0.50;0.50;;;;;;;-0.93;88.90;99852.75;4898406;29;20056;-83
2022/04/30 02:15:18;;;;;;;0.50;0.50;;;;;;;-0.92;88.78;99849.09;4901663;29;20116;-83
2022/04/30 02:17:49;;;;;;;0.50;0.50;;;;;;;-0.88;88.68;99856.59;4904542;29;20520;-83
2022/04/30 02:20:24;;;;;;;0.60;0.60;;;;;;;-0.89;88.33;99854.09;4883310;29;20048;-83
2022/04/30 02:22:55;;;;;;;0.90;0.90;;;;;;;-0.89;88.23;99859.38;4881675;29;20112;-83
2022/04/30 02:25:22;;;;;;;0.80;0.80;;;;;;;-0.95;88.14;99852.88;4898556;29;20056;-82
2022/04/30 02:27:51;;;;;;;0.60;0.60;;;;;;;-0.91;88.44;99859.56;4898116;29;20087;-82
2022/04/30 02:30:21;;;;;;;0.65;0.65;;;;;;;-0.91;88.20;99862.22;4900341;29;20052;-83
2022/04/30 02:32:49;;;;;;;0.70;0.70;;;;;;;-0.87;88.10;99858.25;4917119;29;20059;-83
2022/04/30 02:35:19;;;;;;;0.80;0.80;;;;;;;-0.81;87.87;99866.59;4916997;29;20116;-83
2022/04/30 02:37:49;;;;;;;0.52;0.52;;;;;;;-0.74;87.86;99871.13;4916033;29;20613;-83
2022/04/30 02:40:17;;;;;;;0.73;0.73;;;;;;;-0.60;87.78;99868.97;4916962;29;20060;-83
2022/04/30 02:42:45;;;;;;;0.73;0.73;;;;;;;-0.47;87.27;99877.38;4915546;29;20111;-83
2022/04/30 02:45:13;;;;;;;0.70;0.70;;;;;;;-0.40;86.90;99875.78;4916723;29;20048;-82
2022/04/30 02:47:42;;;;;;;0.60;0.60;;;;;;;-0.24;86.27;99875.06;4916982;29;20064;-83
2022/04/30 02:50:11;;;;;;;0.70;0.70;;;;;;;-0.08;85.72;99880.50;4915209;29;20056;-83
2022/04/30 02:52:41;;;;;;;0.70;0.70;;;;;;;0.06;85.19;99887.09;4916071;29;20079;-82
2022/04/30 02:55:09;;;;;;;0.63;0.63;;;;;;;0.20;84.67;99885.66;4916570;29;20494;-84
2022/04/30 03:00:34;;;;;;;0.70;0.70;;;;;;;0.20;83.48;99891.84;4916433;29;20101;-82
2022/04/30 03:03:24;;;;;;;0.60;0.60;;;;;;;0.24;83.59;99886.22;4910693;29;20155;-81
2022/04/30 03:05:53;;;;;;;0.50;0.50;;;;;;;0.35;83.34;99892.06;4916247;29;20059;-82
2022/04/30 03:08:22;;;;;;;0.60;0.60;;;;;;;0.41;83.12;99893.28;4916306;29;20467;-82
2022/04/30 03:10:53;;;;;;;0.80;0.80;;;;;;;0.37;82.66;99895.41;4916164;29;20050;-81
2022/04/30 03:13:21;;;;;;;0.60;0.60;;;;;;;0.41;82.35;99896.78;4899282;29;20059;-83
2022/04/30 03:15:50;;;;;;;0.52;0.52;;;;;;;0.49;82.17;99905.78;4916928;29;20073;-83
2022/04/30 03:23:52;;;;;;;0.70;0.70;;;;;;;0.54;81.40;99900.81;4913923;29;20098;-82
2022/04/30 03:26:26;;;;;;;0.65;0.65;;;;;;;0.57;81.51;99900.50;4915371;29;20460;-82
2022/04/30 03:28:54;;;;;;;0.65;0.65;;;;;;;0.62;81.12;99906.19;4915085;29;20080;-81
2022/04/30 03:31:21;;;;;;;0.80;0.80;;;;;;;0.64;80.84;99907.69;4898985;29;20044;-81
2022/04/30 03:33:50;;;;;;;0.90;0.90;;;;;;;0.67;80.61;99903.88;4914865;29;20052;-82
2022/04/30 03:36:18;;;;;;;0.80;0.80;;;;;;;0.67;80.31;99906.53;4915543;29;20455;-81
2022/04/30 03:38:45;;;;;;;0.80;0.80;;;;;;;0.71;79.91;99909.69;4915313;29;20099;-81
2022/04/30 03:41:13;;;;;;;0.70;0.70;;;;;;;0.67;79.56;99916.34;4898636;29;20561;-82
2022/04/30 03:43:40;;;;;;;0.65;0.65;;;;;;;0.68;79.58;99908.19;4914812;29;20115;-82
2022/04/30 03:46:07;;;;;;;0.65;0.65;;;;;;;0.80;79.64;99917.56;4915024;29;20130;-83
2022/04/30 03:48:34;;;;;;;0.90;0.90;;;;;;;0.95;79.53;99919.63;4915576;29;20063;-82
2022/04/30 03:51:02;;;;;;;0.60;0.60;;;;;;;1.00;79.04;99912.00;4914782;29;20142;-82
2022/04/30 03:53:29;;;;;;;0.77;0.77;;;;;;;1.04;78.89;99919.50;4898216;29;20515;-83
2022/04/30 03:55:57;;;;;;;0.90;0.90;;;;;;;1.17;78.79;99920.88;4914891;29;20055;-81
2022/04/30 03:58:24;;;;;;;0.70;0.70;;;;;;;1.33;78.50;99928.06;4914839;29;20575;-83
2022/04/30 04:00:53;;;;;;;0.90;0.90;;;;;;;1.53;77.80;99921.44;4914874;29;20112;-82
2022/04/30 04:03:21;;;;;;;0.80;0.80;;;;;;;1.57;76.95;99925.47;4915310;29;20045;-82
2022/04/30 04:05:49;;;;;;;0.70;0.70;;;;;;;1.53;76.55;99924.09;4915303;29;20048;-84
2022/04/30 04:08:16;;;;;;;0.70;0.70;;;;;;;1.44;76.88;99930.41;4884304;29;20064;-85
2022/04/30 04:10:44;;;;;;;0.70;0.70;;;;;;;1.39;77.05;99933.53;4898631;29;20072;-85
2022/04/30 04:18:42;;;;;;;0.80;0.80;;;;;;;0.85;76.10;99931.19;4916200;29;20083;-85
2022/04/30 04:21:10;;;;;;;0.73;0.73;;;;;;;0.95;76.28;99940.88;4916876;29;20059;-87
2022/04/30 04:26:23;;;;;;;0.80;0.80;;;;;;;1.15;75.47;99947.59;4915172;29;20048;-84
2022/04/30 04:28:51;;;;;;;0.90;0.90;;;;;;;1.18;75.17;99957.91;4916741;29;20087;-83
2022/04/30 04:31:23;;;;;;;0.80;0.80;;;;;;;1.12;75.24;99947.94;4887280;29;20095;-84
2022/04/30 04:33:57;;;;;;;0.90;0.90;;;;;;;1.33;75.55;99965.28;4898631;29;20101;-83
2022/04/30 04:36:26;;;;;;;0.80;0.80;;;;;;;1.65;74.34;99953.91;4915275;29;20048;-84
2022/04/30 04:38:53;;;;;;;0.75;0.75;;;;;;;1.57;74.05;99954.72;4915899;29;20052;-82
2022/04/30 04:41:20;;;;;;;0.90;0.90;;;;;;;1.56;73.84;99963.69;4915796;29;20052;-85
2022/04/30 04:43:47;;;;;;;0.80;0.80;;;;;;;1.60;74.19;99964.22;4914893;29;20083;-84
2022/04/30 04:46:15;;;;;;;0.80;0.80;;;;;;;1.45;73.31;99975.47;4898332;29;20397;-85
2022/04/30 04:48:42;;;;;;;0.65;0.65;;;;;;;1.27;73.68;99966.78;4913090;29;20081;-83
2022/04/30 04:51:09;;;;;;;0.82;0.82;;;;;;;1.46;73.92;99966.47;4585573;29;10000455;-83
2022/04/30 04:53:36;;;;;;;0.80;0.80;;;;;;;1.37;73.41;99967.47;4914337;29;20043;-81
2022/04/30 04:56:04;;;;;;;0.90;0.90;;;;;;;1.45;73.31;99964.00;4919937;29;20084;-82
2022/04/30 04:58:31;;;;;;;0.90;0.90;;;;;;;1.76;72.56;99966.06;4938770;29;20023;-84
2022/04/30 05:00:58;;;;;;;0.80;0.80;;;;;;;2.05;71.98;99955.78;4951591;29;20051;-82
2022/04/30 05:03:25;;;;;;;0.60;0.60;;;;;;;2.51;70.79;99961.41;4945580;29;20107;-84
2022/04/30 05:05:52;;;;;;;0.80;0.80;;;;;;;2.95;68.81;99966.28;4947380;29;20048;-82
2022/04/30 05:08:19;;;;;;;0.90;0.90;;;;;;;2.93;67.13;99962.94;4938841;29;20059;-83
2022/04/30 05:10:46;;;;;;;0.77;0.77;;;;;;;2.95;67.45;99974.28;4932324;29;20489;-83
2022/04/30 05:13:13;;;;;;;0.90;0.90;;;;;;;2.98;66.97;99979.28;4931785;29;20524;-83
2022/04/30 05:15:40;;;;;;;0.90;0.90;;;;;;;3.04;66.43;99967.94;4913881;29;20052;-82
2022/04/30 05:18:07;;;;;;;0.70;0.70;;;;;;;3.24;66.48;99975.50;4913153;29;20537;-83
2022/04/30 05:20:35;;;;;;;0.90;0.90;;;;;;;3.08;66.11;99975.59;4914968;29;20095;-83
2022/04/30 05:23:10;;;;;;;0.80;0.80;;;;;;;2.89;66.44;99980.31;4898728;29;20434;-83
2022/04/30 05:25:40;;;;;;;0.70;0.70;;;;;;;2.43;66.80;99972.09;4902469;29;20308;-83
2022/04/30 05:28:09;;;;;;;0.70;0.70;;;;;;;2.38;67.85;99974.38;4897221;29;20530;-84
2022/04/30 05:30:37;;;;;;;0.90;0.90;;;;;;;2.63;67.54;99991.19;4894216;29;20091;-82
2022/04/30 05:33:04;;;;;;;0.90;0.90;;;;;;;2.49;67.22;99973.22;4894006;29;20048;-82
2022/04/30 05:35:31;;;;;;;0.80;0.80;;;;;;;2.50;67.35;99974.88;4898659;29;20056;-83
2022/04/30 05:37:59;;;;;;;0.80;0.80;;;;;;;2.41;67.44;99981.25;4904751;29;20052;-83
2022/04/30 05:40:26;;;;;;;0.80;0.80;;;;;;;2.19;68.57;99983.56;4901156;29;20509;-83
2022/04/30 05:42:53;;;;;;;0.90;0.90;;;;;;;2.25;69.05;99990.06;4897162;29;20144;-83
2022/04/30 05:45:20;;;;;;;0.70;0.70;;;;;;;2.26;68.71;99983.75;4906371;29;20061;-84
2022/04/30 05:47:48;;;;;;;0.80;0.80;;;;;;;2.32;68.85;99989.22;4906450;29;20499;-83
2022/04/30 05:50:15;;;;;;;0.70;0.70;;;;;;;2.53;68.52;99977.22;4920968;29;20752;-83
2022/04/30 05:52:43;;;;;;;0.70;0.70;;;;;;;2.77;68.01;99984.34;4916993;29;20058;-83
2022/04/30 05:55:10;;;;;;;0.70;0.70;;;;;;;2.88;66.59;99975.16;4920140;29;20101;-82
2022/04/30 05:57:39;;;;;;;0.90;0.90;;;;;;;2.51;65.69;99974.72;4935711;29;20063;-84
2022/04/30 06:00:09;;;;;;;0.80;0.80;;;;;;;2.26;66.70;99987.22;4918657;29;20739;-83
2022/04/30 06:02:36;;;;;;;0.80;0.80;;;;;;;2.16;67.31;99979.41;4906138;29;20057;-82
2022/04/30 06:05:03;;;;;;;0.90;0.90;;;;;;;2.48;66.85;99983.06;4904535;29;20415;-84
2022/04/30 06:07:31;;;;;;;0.90;0.90;;;;;;;2.43;66.16;99980.06;4913777;29;20155;-82
2022/04/30 06:09:58;;;;;;;0.80;0.80;;;;;;;2.59;65.43;99987.22;4909518;29;20593;-84
2022/04/30 06:12:25;;;;;;;0.70;0.70;;;;;;;2.45;65.29;99982.56;4897879;29;20080;-83
2022/04/30 06:14:52;;;;;;;0.80;0.80;;;;;;;2.59;64.50;99988.03;4905641;29;20055;-81
2022/04/30 06:17:19;;;;;;;0.80;0.80;;;;;;;2.59;63.42;99980.03;4908103;29;20550;-81
2022/04/30 06:19:46;;;;;;;0.90;0.90;;;;;;;2.76;63.09;99985.31;4897678;29;20126;-82
2022/04/30 06:22:13;;;;;;;0.90;0.90;;;;;;;3.00;62.52;99987.94;4914315;29;20340;-82
2022/04/30 06:24:40;;;;;;;0.90;0.90;;;;;;;3.33;62.14;99976.31;4910253;29;20644;-82
2022/04/30 06:27:08;;;;;;;0.80;0.80;;;;;;;3.59;60.43;99976.84;4906910;29;20413;-82
2022/04/30 06:29:35;;;;;;;0.73;0.73;;;;;;;3.53;59.72;99982.88;4897489;29;20064;-83
2022/04/30 06:32:03;;;;;;;0.88;0.88;;;;;;;3.60;59.62;99980.38;4899098;29;20096;-82
2022/04/30 06:34:30;;;;;;;0.85;0.85;;;;;;;3.42;59.91;99981.44;4881955;29;20044;-83
2022/04/30 06:36:57;;;;;;;0.70;0.70;;;;;;;3.43;59.97;99976.94;4908230;29;20059;-83
2022/04/30 06:39:24;;;;;;;0.90;0.90;;;;;;;3.44;60.15;99984.78;4902873;29;20520;-82
2022/04/30 06:41:51;;;;;;;0.90;0.90;;;;;;;3.67;58.00;99986.63;4906750;29;20180;-83
2022/04/30 06:44:18;;;;;;;0.75;0.75;;;;;;;3.96;56.56;99983.28;4886680;29;20060;-82
2022/04/30 06:46:45;;;;;;;0.90;0.90;;;;;;;4.24;54.82;99967.56;4897341;29;20103;-81
2022/04/30 06:49:12;;;;;;;0.80;0.80;;;;;;;4.46;52.59;99984.56;4911204;29;20048;-83
2022/04/30 06:51:40;;;;;;;0.80;0.80;;;;;;;4.84;52.01;99983.72;4906477;29;20410;-81
2022/04/30 06:57:16;;;;;;;0.70;0.70;;;;;;;4.15;51.83;99983.81;4879550;29;20081;-83
2022/04/30 06:59:41;;;;;;;0.80;0.80;;;;;;;4.28;51.16;99984.03;4888610;29;20076;-83
2022/04/30 07:02:12;;;;;;;0.80;0.80;;;;;;;4.81;50.59;99973.34;4914520;29;20052;-83
2022/04/30 07:04:41;;;;;;;0.75;0.75;;;;;;;5.37;48.00;99968.38;4913879;29;20048;-83
2022/04/30 07:07:09;;;;;;;0.80;0.80;;;;;;;4.98;47.62;99975.66;4899569;29;20064;-83
2022/04/30 07:09:37;;;;;;;0.80;0.80;;;;;;;4.95;48.35;99980.56;4914322;29;20107;-84
2022/04/30 07:12:06;;;;;;;0.70;0.70;;;;;;;5.14;48.62;99976.50;4912645;29;20080;-82
2022/04/30 07:14:36;;;;;;;0.90;0.90;;;;;;;5.47;45.69;99982.31;4915693;29;20619;-84
2022/04/30 07:17:07;;;;;;;0.80;0.80;;;;;;;6.01;45.74;99978.38;4904766;29;20044;-81
2022/04/30 07:19:35;;;;;;;0.55;0.55;;;;;;;6.10;43.77;99973.72;4910987;29;20104;-82
2022/04/30 07:22:03;;;;;;;0.90;0.90;;;;;;;5.83;43.79;99970.75;4913344;29;20162;-82
2022/04/30 07:24:33;;;;;;;0.70;0.70;;;;;;;5.34;44.52;99971.41;4896979;29;20044;-82
2022/04/30 07:27:01;;;;;;;0.70;0.70;;;;;;;5.08;42.89;99983.44;4903747;29;20530;-81
2022/04/30 07:29:28;;;;;;;0.88;0.88;;;;;;;5.07;40.68;99976.44;4902439;29;20056;-82
2022/04/30 07:31:55;;;;;;;1.00;1.00;;;;;;;5.88;41.33;99975.53;4902081;29;20156;-82
2022/04/30 07:34:23;;;;;;;1.00;1.00;;;;;;;6.71;38.93;99966.00;4892810;29;20048;-81
2022/04/30 07:36:50;;;;;;;0.90;0.90;;;;;;;7.23;37.98;99961.13;4894064;29;20049;-82
2022/04/30 07:39:17;;;;;;;0.70;0.70;;;;;;;6.82;38.50;99978.84;4899758;29;20069;-84
2022/04/30 07:41:50;;;;;;;0.70;0.70;;;;;;;6.42;38.83;99973.19;4902042;29;20435;-84
2022/04/30 07:44:17;;;;;;;0.70;0.70;;;;;;;6.00;40.48;99974.03;4895501;29;20056;-83
2022/04/30 07:46:45;;;;;;;1.00;1.00;;;;;;;6.22;39.93;99981.03;4900055;29;20128;-83
2022/04/30 07:49:12;;;;;;;1.00;1.00;;;;;;;6.89;38.38;99960.94;4900751;29;20053;-83
2022/04/30 07:51:53;;;;;;;0.70;0.70;;;;;;;6.72;36.91;99965.78;4904248;29;20083;-83
2022/04/30 07:54:20;;;;;;;0.80;0.80;;;;;;;6.51;37.49;99973.88;4887134;29;20151;-83
2022/04/30 07:56:53;;;;;;;0.73;0.73;;;;;;;5.88;37.99;99968.34;4884397;29;20051;-83
2022/04/30 07:59:21;;;;;;;0.70;0.70;;;;;;;5.31;40.22;99969.94;4880152;29;20579;-81
2022/04/30 08:01:51;;;;;;;0.60;0.60;;;;;;;4.76;42.29;99977.44;4890069;29;20447;-81
2022/04/30 08:04:19;;;;;;;0.70;0.70;;;;;;;4.51;43.46;99982.19;4903170;29;20051;-83
2022/04/30 08:06:53;;;;;;;0.80;0.80;;;;;;;4.63;42.84;99981.72;4860855;29;20048;-83
2022/04/30 08:09:25;;;;;;;;;;;;;;;4.62;43.54;99977.41;4896954;29;20056;-81
2022/04/30 08:12:20;;;;;;;0.90;0.90;;;;;;;4.59;42.83;99972.44;4910815;29;20038;-80
2022/04/30 08:14:50;;;;;;;0.80;0.80;;;;;;;4.92;42.74;99970.25;4867850;29;20073;-82
2022/04/30 08:17:19;;;;;;;0.90;0.90;;;;;;;5.67;41.91;99965.63;4908964;29;20064;-82
2022/04/30 08:19:50;;;;;;;1.00;1.00;;;;;;;6.82;40.17;99961.94;4866874;29;20527;-85
2022/04/30 08:22:17;;;;;;;1.10;1.10;;;;;;;7.46;38.02;99971.53;4897122;29;20048;-82
2022/04/30 08:24:55;;;;;;;1.00;1.00;;;;;;;8.25;35.79;99963.69;4896164;29;20511;-84
2022/04/30 08:28:02;;;;;;;0.80;0.80;;;;;;;8.36;34.17;99962.22;4922550;29;20052;-85
2022/04/30 08:30:33;;;;;;;0.80;0.80;;;;;;;7.41;35.25;99961.41;4910019;29;20112;-86
2022/04/30 08:33:05;;;;;;;0.80;0.80;;;;;;;6.89;36.20;99963.63;4889208;29;20056;-84
2022/04/30 08:35:38;;;;;;;0.90;0.90;;;;;;;7.86;34.67;99961.75;4863851;29;20060;-85
2022/04/30 08:38:10;;;;;;;1.00;1.00;;;;;;;8.72;34.52;99952.09;4882057;29;20056;-83
2022/04/30 08:40:42;;;;;;;0.70;0.70;;;;;;;8.97;33.41;99952.28;4885153;29;20048;-84
2022/04/30 08:43:15;;;;;;;0.70;0.70;;;;;;;7.63;33.26;99946.00;4879524;29;20063;-84
2022/04/30 08:45:47;;;;;;;0.70;0.70;;;;;;;7.06;35.50;99952.56;4878405;29;20546;-84
2022/04/30 08:48:23;;;;;;;0.95;0.95;;;;;;;7.84;33.34;99955.75;4880101;29;20144;-82
2022/04/30 08:50:52;;;;;;;0.80;0.80;;;;;;;7.27;33.21;99951.66;4902125;29;20057;-84
2022/04/30 08:53:23;;;;;;;0.80;0.80;;;;;;;7.81;32.56;99943.53;4865958;29;20033;-87
2022/04/30 08:55:55;;;;;;;0.70;0.70;;;;;;;7.07;33.34;99948.88;4908987;29;20155;-83
2022/04/30 08:58:23;;;;;;;0.60;0.60;;;;;;;6.89;34.07;99952.88;4897267;29;20127;-85
2022/04/30 09:00:50;;;;;;;0.70;0.70;;;;;;;6.95;35.45;99949.41;4906330;29;20073;-87
2022/04/30 09:03:20;;;;;;;0.70;0.70;;;;;;;7.04;34.69;99952.78;4899870;29;20056;-84
2022/04/30 09:05:49;;;;;;;0.70;0.70;;;;;;;6.61;33.83;99947.56;4917353;29;20434;-83
2022/04/30 09:08:16;;;;;;;0.70;0.70;;;;;;;6.29;34.59;99940.91;4913955;29;20157;-86
2022/04/30 09:10:44;;;;;;;0.80;0.80;;;;;;;6.54;35.22;99946.66;4916056;29;20154;-85
2022/04/30 09:13:13;;;;;;;0.80;0.80;;;;;;;7.58;34.35;99938.53;4910984;29;20567;-83
2022/04/30 09:15:44;;;;;;;0.80;0.80;;;;;;;7.88;34.43;99932.00;4917136;29;20052;-84
2022/04/30 09:18:13;;;;;;;0.70;0.70;;;;;;;8.17;34.01;99934.28;4923054;29;20056;-83
2022/04/30 09:20:51;;;;;;;0.70;0.70;;;;;;;8.35;33.75;99922.91;4904930;29;20056;-86
2022/04/30 09:23:33;;;;;;;0.73;0.73;;;;;;;8.28;33.76;99932.00;4911142;29;20129;-84
2022/04/30 09:26:06;;;;;;;0.70;0.70;;;;;;;7.85;34.25;99924.31;4919164;29;20076;-83
2022/04/30 09:28:36;;;;;;;0.70;0.70;;;;;;;7.36;34.48;99939.69;4919850;29;20111;-85
2022/04/30 09:31:12;;;;;;;0.70;0.70;;;;;;;7.34;34.75;99931.84;4900237;29;20064;-84
2022/04/30 09:33:49;;;;;;;0.60;0.60;;;;;;;7.51;33.93;99926.09;4924889;29;20059;-83
2022/04/30 09:39:56;;;;;;;0.77;0.77;;;;;;;7.37;33.03;99923.38;4908406;29;20056;-85
2022/04/30 09:42:23;;;;;;;0.70;0.70;;;;;;;7.12;33.63;99925.75;4919217;29;20052;-84
2022/04/30 09:44:50;;;;;;;0.80;0.80;;;;;;;6.80;33.87;99921.88;4919398;29;20052;-85
2022/04/30 09:47:18;;;;;;;0.80;0.80;;;;;;;7.09;34.31;99919.94;4919394;29;20052;-84
2022/04/30 09:55:17;;;;;;;0.70;0.70;;;;;;;7.36;33.39;99919.03;4902420;29;20072;-84
2022/04/30 09:57:45;;;;;;;0.70;0.70;;;;;;;7.19;32.87;99923.13;4881541;29;20056;-83
2022/04/30 10:00:13;;;;;;;0.70;0.70;;;;;;;7.18;33.21;99924.13;4902087;29;20085;-85
2022/04/30 10:02:45;;;;;;;0.80;0.80;;;;;;;7.09;33.42;99918.09;4889615;29;20056;-88
2022/04/30 10:05:12;;;;;;;0.80;0.80;;;;;;;7.16;32.83;99927.03;4902602;29;20067;-83
2022/04/30 10:07:40;;;;;;;0.80;0.80;;;;;;;7.55;32.67;99917.44;4894371;29;20048;-83
2022/04/30 10:10:22;;;;;;;0.80;0.80;;;;;;;7.89;31.99;99917.50;4899684;29;20053;-82
2022/04/30 10:12:52;;;;;;;0.90;0.90;;;;;;;7.99;30.75;99918.75;4904809;29;20056;-85
2022/04/30 10:15:30;;;;;;;0.75;0.75;;;;;;;7.62;31.29;99911.25;4911602;29;20056;-87
2022/04/30 10:17:57;;;;;;;0.75;0.75;;;;;;;7.64;31.57;99909.19;4874052;29;20058;-86
2022/04/30 10:20:37;;;;;;;1.10;1.10;;;;;;;8.00;31.30;99919.59;4898137;29;20052;-85
2022/04/30 10:23:05;;;;;;;1.00;1.00;;;;;;;8.80;31.07;99917.72;4922201;29;20056;-86
2022/04/30 10:25:36;;;;;;;0.77;0.77;;;;;;;10.02;29.76;99914.22;4891092;29;20139;-87
2022/04/30 10:28:25;;;;;;;0.90;0.90;;;;;;;10.07;29.60;99915.22;4912327;29;20056;-86
2022/04/30 10:31:03;;;;;;;0.90;0.90;;;;;;;11.55;28.26;99904.59;4918937;29;20060;-86
2022/04/30 10:33:31;;;;;;;0.60;0.60;;;;;;;10.75;29.69;99902.84;4919342;29;20118;-85
2022/04/30 10:36:07;;;;;;;1.00;1.00;;;;;;;10.41;30.09;99916.66;4901674;29;20108;-85
2022/04/30 10:38:34;;;;;;;0.60;0.60;;;;;;;9.71;30.21;99923.97;4902944;29;20139;-86
2022/04/30 10:41:04;;;;;;;0.60;0.60;;;;;;;8.94;30.85;99913.13;4888466;29;20546;-85
2022/04/30 10:43:42;;;;;;;0.80;0.80;;;;;;;8.83;31.90;99903.81;4918380;29;20454;-86
2022/04/30 10:46:12;;;;;;;0.70;0.70;;;;;;;8.65;31.59;99917.13;4921065;29;20055;-86
2022/04/30 10:48:40;;;;;;;0.60;0.60;;;;;;;8.60;31.73;99908.84;4903919;29;20055;-86
2022/04/30 10:51:15;;;;;;;0.60;0.60;;;;;;;8.38;31.97;99910.91;4917963;29;20070;-85
2022/04/30 10:53:46;;;;;;;0.70;0.70;;;;;;;8.44;31.56;99905.56;4920832;29;20062;-85
2022/04/30 10:56:15;;;;;;;0.70;0.70;;;;;;;8.21;31.55;99897.06;4918231;29;20048;-86
2022/04/30 10:58:42;;;;;;;0.75;0.75;;;;;;;8.17;31.67;99902.00;4917496;29;20067;-86
2022/04/30 11:01:17;;;;;;;1.00;1.00;;;;;;;8.98;30.81;99903.56;4911809;29;20054;-86
2022/04/30 11:03:46;;;;;;;0.90;0.90;;;;;;;10.65;29.28;99900.63;4888779;29;20057;-86
2022/04/30 11:06:19;;;;;;;0.70;0.70;;;;;;;11.11;29.32;99902.00;4900447;29;20103;-86
2022/04/30 11:09:00;;;;;;;0.70;0.70;;;;;;;11.14;29.23;99898.88;4903857;29;20063;-85
2022/04/30 11:11:28;;;;;;;0.50;0.50;;;;;;;10.61;29.35;99899.47;4905122;29;20072;-87
2022/04/30 11:14:03;;;;;;;0.70;0.70;;;;;;;9.99;30.27;99894.75;4904449;29;20191;-86
2022/04/30 11:16:31;;;;;;;0.70;0.70;;;;;;;10.14;30.48;99896.31;4905538;29;20477;-85
2022/04/30 11:19:06;;;;;;;0.70;0.70;;;;;;;9.91;29.66;99886.09;4906491;29;20530;-84
2022/04/30 11:21:34;;;;;;;;;;;;;;;10.11;29.56;99888.66;4912263;29;20053;-85
2022/04/30 11:24:03;;;;;;;1.00;1.00;;;;;;;10.67;29.84;99887.75;4897530;29;19931;-86
2022/04/30 11:26:45;;;;;;;1.00;1.00;;;;;;;13.02;27.01;99885.69;4898460;29;20076;-86
2022/04/30 11:29:16;;;;;;;0.77;0.77;;;;;;;12.90;26.88;99878.66;4882384;29;20057;-85
2022/04/30 11:31:50;;;;;;;0.80;0.80;;;;;;;12.42;26.14;99869.72;4902470;29;20459;-82
2022/04/30 11:34:18;;;;;;;1.40;1.30;;;;;;;13.19;25.99;99871.38;4915521;29;20304;-83
2022/04/30 11:36:54;;;;;;;1.15;1.15;;;;;;;15.36;24.79;99875.38;4916886;29;20052;-84
2022/04/30 11:39:22;;;;;;;0.50;0.50;;;;;;;14.95;24.94;99878.44;4898925;29;20057;-83
2022/04/30 11:41:56;;;;;;;0.50;0.50;;;;;;;12.08;26.79;99882.19;4888258;29;20060;-83
2022/04/30 11:44:28;;;;;;;0.50;0.50;;;;;;;10.40;29.53;99888.00;4881345;29;20060;-83
2022/04/30 11:46:57;;;;;;;0.60;0.60;;;;;;;9.67;31.08;99885.88;4879168;29;20607;-81
2022/04/30 11:49:29;;;;;;;0.60;0.60;;;;;;;9.20;31.71;99887.16;4892143;29;20052;-85
2022/04/30 11:52:11;;;;;;;0.60;0.60;;;;;;;8.77;32.42;99890.41;4877396;29;20057;-83
2022/04/30 11:54:41;;;;;;;0.60;0.60;;;;;;;8.72;32.05;99892.91;4863501;29;20119;-85
2022/04/30 11:57:09;;;;;;;0.60;0.60;;;;;;;8.65;32.21;99893.72;4903465;29;20136;-87
2022/04/30 11:59:40;;;;;;;0.70;0.70;;;;;;;8.62;32.07;99894.16;4892242;29;20053;-85
2022/04/30 12:02:11;;;;;;;0.80;0.80;;;;;;;8.96;32.09;99881.41;4876315;29;20053;-84
2022/04/30 12:04:43;;;;;;;1.33;1.23;;;;;;;10.35;30.01;99901.31;4900908;29;20725;-86
2022/04/30 12:07:12;;;;;;;0.70;0.70;;;;;;;12.00;28.08;99879.81;4899538;29;20058;-85
2022/04/30 12:09:45;;;;;;;0.60;0.60;;;;;;;11.14;29.41;99890.78;4899796;29;20140;-88
2022/04/30 12:12:22;;;;;;;0.60;0.60;;;;;;;10.37;29.10;99888.44;4888801;29;20052;-87
2022/04/30 12:14:52;;;;;;;0.60;0.60;;;;;;;9.03;31.64;99893.00;4915220;29;20352;-86
2022/04/30 12:17:27;;;;;;;0.60;0.60;;;;;;;8.85;31.58;99893.69;4903176;29;20070;-87
2022/04/30 12:25:47;;;;;;;0.70;0.70;;;;;;;8.71;32.30;99875.94;4891787;29;20108;-85
2022/04/30 12:28:14;;;;;;;0.70;0.70;;;;;;;8.81;32.12;99887.06;4865934;29;20578;-87
2022/04/30 12:30:51;;;;;;;0.70;0.70;;;;;;;9.01;32.22;99892.38;4898049;29;20078;-84